sensor_id;sensor_type;location;lat;lon;timestamp;P1;durP1;ratioP1;P2;durP2;ratioP2
50355;SDS011;36264;51.296;-0.602;2022-12-20T00:01:42;4.90;;;1.65;;
50355;SDS011;36264;51.296;-0.602;2022-12-20T00:04:08;5.38;;;1.50;;
50355;SDS011;36264;51.296;-0.602;2022-12-20T00:06:36;5.03;;;1.60;;
50355;SDS011;36264;51.296;-0.602;2022-12-20T00:09:03;6.45;;;1.60;;
50355;SDS011;36264;51.296;-0.602;2022-12-20T00:11:30;6.53;;;1.63;;
50355;SDS011;36264;51.296;-0.602;2022-12-20T00:13:56;4.55;;;1.33;;
50355;SDS011;36264;51.296;-0.602;2022-12-20T00:16:23;4.80;;;1.80;;
50355;SDS011;36264;51.296;-0.602;2022-12-20T00:18:51;5.10;;;1.55;;
50355;SDS011;36264;51.296;-0.602;2022-12-20T00:21:21;5.78;;;1.60;;
50355;SDS011;36264;51.296;-0.602;2022-12-20T00:23:47;6.57;;;2.28;;
50355;SDS011;36264;51.296;-0.602;2022-12-20T00:26:14;3.30;;;1.30;;
50355;SDS011;36264;51.296;-0.602;2022-12-20T00:28:41;6.10;;;1.80;;
50355;SDS011;36264;51.296;-0.602;2022-12-20T00:31:08;5.85;;;1.90;;
50355;SDS011;36264;51.296;-0.602;2022-12-20T00:33:35;5.93;;;1.70;;
50355;SDS011;36264;51.296;-0.602;2022-12-20T00:36:02;5.28;;;1.52;;
50355;SDS011;36264;51.296;-0.602;2022-12-20T00:38:29;5.18;;;1.35;;
50355;SDS011;36264;51.296;-0.602;2022-12-20T00:41:02;7.95;;;2.30;;
50355;SDS011;36264;51.296;-0.602;2022-12-20T00:43:28;6.10;;;1.73;;
50355;SDS011;36264;51.296;-0.602;2022-12-20T00:45:54;6.00;;;1.60;;
50355;SDS011;36264;51.296;-0.602;2022-12-20T00:48:20;5.78;;;2.03;;
50355;SDS011;36264;51.296;-0.602;2022-12-20T00:50:45;9.23;;;2.10;;
50355;SDS011;36264;51.296;-0.602;2022-12-20T00:53:11;5.47;;;1.70;;
50355;SDS011;36264;51.296;-0.602;2022-12-20T00:55:40;4.57;;;1.48;;
50355;SDS011;36264;51.296;-0.602;2022-12-20T00:58:06;3.73;;;1.13;;
50355;SDS011;36264;51.296;-0.602;2022-12-20T01:00:32;6.90;;;1.60;;
50355;SDS011;36264;51.296;-0.602;2022-12-20T01:02:57;6.95;;;1.95;;
50355;SDS011;36264;51.296;-0.602;2022-12-20T01:05:23;8.55;;;1.83;;
50355;SDS011;36264;51.296;-0.602;2022-12-20T01:07:48;7.07;;;1.50;;
50355;SDS011;36264;51.296;-0.602;2022-12-20T01:10:14;7.75;;;1.80;;
50355;SDS011;36264;51.296;-0.602;2022-12-20T01:12:39;7.22;;;1.83;;
50355;SDS011;36264;51.296;-0.602;2022-12-20T01:15:05;7.38;;;1.58;;
50355;SDS011;36264;51.296;-0.602;2022-12-20T01:17:31;10.23;;;3.00;;
50355;SDS011;36264;51.296;-0.602;2022-12-20T01:19:56;7.38;;;2.10;;
50355;SDS011;36264;51.296;-0.602;2022-12-20T01:22:22;5.78;;;1.70;;
50355;SDS011;36264;51.296;-0.602;2022-12-20T01:24:47;6.03;;;1.70;;
50355;SDS011;36264;51.296;-0.602;2022-12-20T01:27:12;7.07;;;1.80;;
50355;SDS011;36264;51.296;-0.602;2022-12-20T01:29:38;4.57;;;1.52;;
50355;SDS011;36264;51.296;-0.602;2022-12-20T01:32:04;5.55;;;1.80;;
50355;SDS011;36264;51.296;-0.602;2022-12-20T01:34:29;7.03;;;1.63;;
50355;SDS011;36264;51.296;-0.602;2022-12-20T01:36:55;6.95;;;1.85;;
50355;SDS011;36264;51.296;-0.602;2022-12-20T01:39:20;5.30;;;1.48;;
50355;SDS011;36264;51.296;-0.602;2022-12-20T01:41:45;6.07;;;1.80;;
50355;SDS011;36264;51.296;-0.602;2022-12-20T01:46:43;8.00;;;1.88;;
50355;SDS011;36264;51.296;-0.602;2022-12-20T01:51:44;5.55;;;1.60;;
50355;SDS011;36264;51.296;-0.602;2022-12-20T01:54:18;7.10;;;1.70;;
50355;SDS011;36264;51.296;-0.602;2022-12-20T01:56:50;5.68;;;2.05;;
50355;SDS011;36264;51.296;-0.602;2022-12-20T01:59:20;4.85;;;1.38;;
50355;SDS011;36264;51.296;-0.602;2022-12-20T02:01:46;4.53;;;1.52;;
50355;SDS011;36264;51.296;-0.602;2022-12-20T02:04:11;4.18;;;1.50;;
50355;SDS011;36264;51.296;-0.602;2022-12-20T02:06:37;4.15;;;1.30;;
50355;SDS011;36264;51.296;-0.602;2022-12-20T02:09:03;5.72;;;1.73;;
50355;SDS011;36264;51.296;-0.602;2022-12-20T02:14:21;5.80;;;1.73;;
50355;SDS011;36264;51.296;-0.602;2022-12-20T02:16:59;7.47;;;1.50;;
50355;SDS011;36264;51.296;-0.602;2022-12-20T02:31:09;6.18;;;1.80;;
50355;SDS011;36264;51.296;-0.602;2022-12-20T02:33:38;8.60;;;2.10;;
50355;SDS011;36264;51.296;-0.602;2022-12-20T02:36:07;6.97;;;2.03;;
50355;SDS011;36264;51.296;-0.602;2022-12-20T02:38:34;7.78;;;2.53;;
50355;SDS011;36264;51.296;-0.602;2022-12-20T02:41:02;6.10;;;2.20;;
50355;SDS011;36264;51.296;-0.602;2022-12-20T02:43:32;8.43;;;2.05;;
50355;SDS011;36264;51.296;-0.602;2022-12-20T02:46:21;7.40;;;2.10;;
50355;SDS011;36264;51.296;-0.602;2022-12-20T02:48:49;7.95;;;2.10;;
50355;SDS011;36264;51.296;-0.602;2022-12-20T02:51:17;5.60;;;2.20;;
50355;SDS011;36264;51.296;-0.602;2022-12-20T02:53:46;7.70;;;2.08;;
50355;SDS011;36264;51.296;-0.602;2022-12-20T02:56:15;5.43;;;1.80;;
50355;SDS011;36264;51.296;-0.602;2022-12-20T03:01:20;9.80;;;2.00;;
50355;SDS011;36264;51.296;-0.602;2022-12-20T03:03:50;5.47;;;1.83;;
50355;SDS011;36264;51.296;-0.602;2022-12-20T03:06:16;8.82;;;1.75;;
50355;SDS011;36264;51.296;-0.602;2022-12-20T03:08:42;7.10;;;1.70;;
50355;SDS011;36264;51.296;-0.602;2022-12-20T03:11:07;7.97;;;2.00;;
50355;SDS011;36264;51.296;-0.602;2022-12-20T03:13:33;5.43;;;1.65;;
50355;SDS011;36264;51.296;-0.602;2022-12-20T03:15:58;5.47;;;1.75;;
50355;SDS011;36264;51.296;-0.602;2022-12-20T03:18:24;8.52;;;2.10;;
50355;SDS011;36264;51.296;-0.602;2022-12-20T03:20:49;5.15;;;1.65;;
50355;SDS011;36264;51.296;-0.602;2022-12-20T03:23:15;6.25;;;1.67;;
50355;SDS011;36264;51.296;-0.602;2022-12-20T03:25:40;7.30;;;1.80;;
50355;SDS011;36264;51.296;-0.602;2022-12-20T03:28:05;7.57;;;1.90;;
50355;SDS011;36264;51.296;-0.602;2022-12-20T03:30:31;7.30;;;1.90;;
50355;SDS011;36264;51.296;-0.602;2022-12-20T03:32:57;4.40;;;1.70;;
50355;SDS011;36264;51.296;-0.602;2022-12-20T03:35:22;5.15;;;1.70;;
50355;SDS011;36264;51.296;-0.602;2022-12-20T03:37:48;4.45;;;2.03;;
50355;SDS011;36264;51.296;-0.602;2022-12-20T03:40:13;5.70;;;1.98;;
50355;SDS011;36264;51.296;-0.602;2022-12-20T03:42:40;7.63;;;2.28;;
50355;SDS011;36264;51.296;-0.602;2022-12-20T03:45:06;7.80;;;2.00;;
50355;SDS011;36264;51.296;-0.602;2022-12-20T03:47:31;6.13;;;1.83;;
50355;SDS011;36264;51.296;-0.602;2022-12-20T03:49:57;7.18;;;2.10;;
50355;SDS011;36264;51.296;-0.602;2022-12-20T03:52:22;6.75;;;2.00;;
50355;SDS011;36264;51.296;-0.602;2022-12-20T03:54:47;5.13;;;1.90;;
50355;SDS011;36264;51.296;-0.602;2022-12-20T03:57:13;6.53;;;1.85;;
50355;SDS011;36264;51.296;-0.602;2022-12-20T03:59:38;8.35;;;2.17;;
50355;SDS011;36264;51.296;-0.602;2022-12-20T04:02:04;8.85;;;2.13;;
50355;SDS011;36264;51.296;-0.602;2022-12-20T04:04:29;5.97;;;2.25;;
50355;SDS011;36264;51.296;-0.602;2022-12-20T04:06:55;6.03;;;2.05;;
50355;SDS011;36264;51.296;-0.602;2022-12-20T04:09:20;6.88;;;2.20;;
50355;SDS011;36264;51.296;-0.602;2022-12-20T04:11:46;5.70;;;2.05;;
50355;SDS011;36264;51.296;-0.602;2022-12-20T04:14:12;4.82;;;1.80;;
50355;SDS011;36264;51.296;-0.602;2022-12-20T04:16:37;8.07;;;2.17;;
50355;SDS011;36264;51.296;-0.602;2022-12-20T04:19:02;5.72;;;2.35;;
50355;SDS011;36264;51.296;-0.602;2022-12-20T04:21:31;7.95;;;2.65;;
50355;SDS011;36264;51.296;-0.602;2022-12-20T04:23:58;6.13;;;1.83;;
50355;SDS011;36264;51.296;-0.602;2022-12-20T04:26:26;7.55;;;2.25;;
50355;SDS011;36264;51.296;-0.602;2022-12-20T04:28:51;6.30;;;2.20;;
50355;SDS011;36264;51.296;-0.602;2022-12-20T04:31:17;7.95;;;1.90;;
50355;SDS011;36264;51.296;-0.602;2022-12-20T04:33:42;6.15;;;2.25;;
50355;SDS011;36264;51.296;-0.602;2022-12-20T04:36:08;8.93;;;2.45;;
50355;SDS011;36264;51.296;-0.602;2022-12-20T04:38:33;10.60;;;2.38;;
50355;SDS011;36264;51.296;-0.602;2022-12-20T04:40:59;5.35;;;1.80;;
50355;SDS011;36264;51.296;-0.602;2022-12-20T04:43:25;7.07;;;1.90;;
50355;SDS011;36264;51.296;-0.602;2022-12-20T04:45:51;8.10;;;2.20;;
50355;SDS011;36264;51.296;-0.602;2022-12-20T04:48:18;5.93;;;2.08;;
50355;SDS011;36264;51.296;-0.602;2022-12-20T04:50:48;7.57;;;2.00;;
50355;SDS011;36264;51.296;-0.602;2022-12-20T04:53:14;8.20;;;2.30;;
50355;SDS011;36264;51.296;-0.602;2022-12-20T04:55:58;5.90;;;2.50;;
50355;SDS011;36264;51.296;-0.602;2022-12-20T04:58:23;7.68;;;2.08;;
50355;SDS011;36264;51.296;-0.602;2022-12-20T05:00:49;5.95;;;2.20;;
50355;SDS011;36264;51.296;-0.602;2022-12-20T05:03:16;7.65;;;1.90;;
50355;SDS011;36264;51.296;-0.602;2022-12-20T05:05:42;8.10;;;2.33;;
50355;SDS011;36264;51.296;-0.602;2022-12-20T05:08:08;9.75;;;2.30;;
50355;SDS011;36264;51.296;-0.602;2022-12-20T05:10:33;5.90;;;2.25;;
50355;SDS011;36264;51.296;-0.602;2022-12-20T05:12:58;6.32;;;2.15;;
50355;SDS011;36264;51.296;-0.602;2022-12-20T05:15:24;5.97;;;2.00;;
50355;SDS011;36264;51.296;-0.602;2022-12-20T05:17:49;7.93;;;1.80;;
50355;SDS011;36264;51.296;-0.602;2022-12-20T05:20:14;4.82;;;1.60;;
50355;SDS011;36264;51.296;-0.602;2022-12-20T05:22:40;4.35;;;1.80;;
50355;SDS011;36264;51.296;-0.602;2022-12-20T05:25:23;4.78;;;1.83;;
50355;SDS011;36264;51.296;-0.602;2022-12-20T05:28:07;5.25;;;1.83;;
50355;SDS011;36264;51.296;-0.602;2022-12-20T05:30:33;5.38;;;1.73;;
50355;SDS011;36264;51.296;-0.602;2022-12-20T05:32:58;5.80;;;2.10;;
50355;SDS011;36264;51.296;-0.602;2022-12-20T05:35:23;6.00;;;2.00;;
50355;SDS011;36264;51.296;-0.602;2022-12-20T05:37:49;6.35;;;1.70;;
50355;SDS011;36264;51.296;-0.602;2022-12-20T05:40:14;6.38;;;1.73;;
50355;SDS011;36264;51.296;-0.602;2022-12-20T05:42:40;6.70;;;1.83;;
50355;SDS011;36264;51.296;-0.602;2022-12-20T05:45:06;7.75;;;2.13;;
50355;SDS011;36264;51.296;-0.602;2022-12-20T05:47:32;4.65;;;1.63;;
50355;SDS011;36264;51.296;-0.602;2022-12-20T05:50:00;9.02;;;2.05;;
50355;SDS011;36264;51.296;-0.602;2022-12-20T05:52:27;6.22;;;1.67;;
50355;SDS011;36264;51.296;-0.602;2022-12-20T05:54:53;5.82;;;1.73;;
50355;SDS011;36264;51.296;-0.602;2022-12-20T05:57:18;7.22;;;1.98;;
50355;SDS011;36264;51.296;-0.602;2022-12-20T05:59:44;6.45;;;2.03;;
50355;SDS011;36264;51.296;-0.602;2022-12-20T06:02:09;6.95;;;1.90;;
50355;SDS011;36264;51.296;-0.602;2022-12-20T06:04:35;5.90;;;2.45;;
50355;SDS011;36264;51.296;-0.602;2022-12-20T06:07:02;11.15;;;2.17;;
50355;SDS011;36264;51.296;-0.602;2022-12-20T06:09:29;3.40;;;1.30;;
50355;SDS011;36264;51.296;-0.602;2022-12-20T06:11:54;3.90;;;1.33;;
50355;SDS011;36264;51.296;-0.602;2022-12-20T06:14:19;2.90;;;1.00;;
50355;SDS011;36264;51.296;-0.602;2022-12-20T06:16:45;1.70;;;1.00;;
50355;SDS011;36264;51.296;-0.602;2022-12-20T06:19:11;1.13;;;0.73;;
50355;SDS011;36264;51.296;-0.602;2022-12-20T06:21:36;2.25;;;0.50;;
50355;SDS011;36264;51.296;-0.602;2022-12-20T06:24:02;1.33;;;0.57;;
50355;SDS011;36264;51.296;-0.602;2022-12-20T06:26:27;0.75;;;0.70;;
50355;SDS011;36264;51.296;-0.602;2022-12-20T06:28:59;0.32;;;0.32;;
50355;SDS011;36264;51.296;-0.602;2022-12-20T06:31:26;0.45;;;0.45;;
50355;SDS011;36264;51.296;-0.602;2022-12-20T06:33:51;0.98;;;0.40;;
50355;SDS011;36264;51.296;-0.602;2022-12-20T06:36:17;1.20;;;0.50;;
50355;SDS011;36264;51.296;-0.602;2022-12-20T06:38:42;0.40;;;0.40;;
50355;SDS011;36264;51.296;-0.602;2022-12-20T06:41:07;0.47;;;0.47;;
50355;SDS011;36264;51.296;-0.602;2022-12-20T06:43:33;0.35;;;0.32;;
50355;SDS011;36264;51.296;-0.602;2022-12-20T06:45:58;0.38;;;0.38;;
50355;SDS011;36264;51.296;-0.602;2022-12-20T06:48:24;0.40;;;0.40;;
50355;SDS011;36264;51.296;-0.602;2022-12-20T06:50:49;1.70;;;0.63;;
50355;SDS011;36264;51.296;-0.602;2022-12-20T06:53:14;0.57;;;0.30;;
50355;SDS011;36264;51.296;-0.602;2022-12-20T06:55:40;0.40;;;0.40;;
50355;SDS011;36264;51.296;-0.602;2022-12-20T06:58:05;0.40;;;0.40;;
50355;SDS011;36264;51.296;-0.602;2022-12-20T07:00:31;0.30;;;0.30;;
50355;SDS011;36264;51.296;-0.602;2022-12-20T07:02:56;0.47;;;0.47;;
50355;SDS011;36264;51.296;-0.602;2022-12-20T07:05:22;0.30;;;0.22;;
50355;SDS011;36264;51.296;-0.602;2022-12-20T07:07:47;0.50;;;0.40;;
50355;SDS011;36264;51.296;-0.602;2022-12-20T07:10:12;1.15;;;0.50;;
50355;SDS011;36264;51.296;-0.602;2022-12-20T07:12:38;0.38;;;0.38;;
50355;SDS011;36264;51.296;-0.602;2022-12-20T07:15:05;0.80;;;0.30;;
50355;SDS011;36264;51.296;-0.602;2022-12-20T07:17:31;1.02;;;0.45;;
50355;SDS011;36264;51.296;-0.602;2022-12-20T07:19:57;0.75;;;0.50;;
50355;SDS011;36264;51.296;-0.602;2022-12-20T07:22:22;0.43;;;0.43;;
50355;SDS011;36264;51.296;-0.602;2022-12-20T07:24:47;6.68;;;0.65;;
50355;SDS011;36264;51.296;-0.602;2022-12-20T07:27:14;5.68;;;0.93;;
50355;SDS011;36264;51.296;-0.602;2022-12-20T07:29:40;0.45;;;0.45;;
50355;SDS011;36264;51.296;-0.602;2022-12-20T07:32:06;0.50;;;0.50;;
50355;SDS011;36264;51.296;-0.602;2022-12-20T07:34:31;3.45;;;0.50;;
50355;SDS011;36264;51.296;-0.602;2022-12-20T07:36:57;0.40;;;0.40;;
50355;SDS011;36264;51.296;-0.602;2022-12-20T07:39:23;1.15;;;0.52;;
50355;SDS011;36264;51.296;-0.602;2022-12-20T07:41:48;0.50;;;0.50;;
50355;SDS011;36264;51.296;-0.602;2022-12-20T07:44:17;1.13;;;0.50;;
50355;SDS011;36264;51.296;-0.602;2022-12-20T07:46:43;1.33;;;0.40;;
50355;SDS011;36264;51.296;-0.602;2022-12-20T07:49:09;2.17;;;0.45;;
50355;SDS011;36264;51.296;-0.602;2022-12-20T07:51:36;0.52;;;0.40;;
50355;SDS011;36264;51.296;-0.602;2022-12-20T07:54:11;0.93;;;0.50;;
50355;SDS011;36264;51.296;-0.602;2022-12-20T07:56:40;1.08;;;0.60;;
50355;SDS011;36264;51.296;-0.602;2022-12-20T07:59:10;0.30;;;0.30;;
50355;SDS011;36264;51.296;-0.602;2022-12-20T08:01:38;1.67;;;0.47;;
50355;SDS011;36264;51.296;-0.602;2022-12-20T08:04:07;0.50;;;0.50;;
50355;SDS011;36264;51.296;-0.602;2022-12-20T08:06:38;0.57;;;0.35;;
50355;SDS011;36264;51.296;-0.602;2022-12-20T08:09:06;2.83;;;0.63;;
50355;SDS011;36264;51.296;-0.602;2022-12-20T08:11:34;1.40;;;0.47;;
50355;SDS011;36264;51.296;-0.602;2022-12-20T08:14:01;0.43;;;0.43;;
50355;SDS011;36264;51.296;-0.602;2022-12-20T08:16:28;0.55;;;0.50;;
50355;SDS011;36264;51.296;-0.602;2022-12-20T08:18:55;0.55;;;0.45;;
50355;SDS011;36264;51.296;-0.602;2022-12-20T08:21:20;1.40;;;0.65;;
50355;SDS011;36264;51.296;-0.602;2022-12-20T08:23:46;0.75;;;0.70;;
50355;SDS011;36264;51.296;-0.602;2022-12-20T08:26:11;0.80;;;0.60;;
50355;SDS011;36264;51.296;-0.602;2022-12-20T08:28:36;0.47;;;0.40;;
50355;SDS011;36264;51.296;-0.602;2022-12-20T08:31:02;0.77;;;0.40;;
50355;SDS011;36264;51.296;-0.602;2022-12-20T08:33:29;0.50;;;0.47;;
50355;SDS011;36264;51.296;-0.602;2022-12-20T08:35:56;0.80;;;0.47;;
50355;SDS011;36264;51.296;-0.602;2022-12-20T08:38:24;0.55;;;0.55;;
50355;SDS011;36264;51.296;-0.602;2022-12-20T08:40:50;2.95;;;0.70;;
50355;SDS011;36264;51.296;-0.602;2022-12-20T08:43:16;2.70;;;0.80;;
50355;SDS011;36264;51.296;-0.602;2022-12-20T08:45:41;2.05;;;0.40;;
50355;SDS011;36264;51.296;-0.602;2022-12-20T08:48:06;0.50;;;0.40;;
50355;SDS011;36264;51.296;-0.602;2022-12-20T08:50:32;13.48;;;1.17;;
50355;SDS011;36264;51.296;-0.602;2022-12-20T08:52:57;0.52;;;0.50;;
50355;SDS011;36264;51.296;-0.602;2022-12-20T08:55:23;0.98;;;0.55;;
50355;SDS011;36264;51.296;-0.602;2022-12-20T08:57:48;2.10;;;0.70;;
50355;SDS011;36264;51.296;-0.602;2022-12-20T09:00:13;7.82;;;0.77;;
50355;SDS011;36264;51.296;-0.602;2022-12-20T09:02:39;2.38;;;0.60;;
50355;SDS011;36264;51.296;-0.602;2022-12-20T09:05:05;3.20;;;0.70;;
50355;SDS011;36264;51.296;-0.602;2022-12-20T09:07:31;2.53;;;0.70;;
50355;SDS011;36264;51.296;-0.602;2022-12-20T09:09:56;32.40;;;1.33;;
50355;SDS011;36264;51.296;-0.602;2022-12-20T09:12:22;13.25;;;0.88;;
50355;SDS011;36264;51.296;-0.602;2022-12-20T09:14:47;1.75;;;0.63;;
50355;SDS011;36264;51.296;-0.602;2022-12-20T09:17:12;12.50;;;0.80;;
50355;SDS011;36264;51.296;-0.602;2022-12-20T09:19:38;5.88;;;0.80;;
50355;SDS011;36264;51.296;-0.602;2022-12-20T09:22:03;24.13;;;1.45;;
50355;SDS011;36264;51.296;-0.602;2022-12-20T09:24:29;1.60;;;0.60;;
50355;SDS011;36264;51.296;-0.602;2022-12-20T09:26:54;3.30;;;0.73;;
50355;SDS011;36264;51.296;-0.602;2022-12-20T09:29:20;8.05;;;0.65;;
50355;SDS011;36264;51.296;-0.602;2022-12-20T09:31:45;1.60;;;0.50;;
50355;SDS011;36264;51.296;-0.602;2022-12-20T09:34:13;6.47;;;0.68;;
50355;SDS011;36264;51.296;-0.602;2022-12-20T09:36:39;0.60;;;0.60;;
50355;SDS011;36264;51.296;-0.602;2022-12-20T09:39:04;3.08;;;0.70;;
50355;SDS011;36264;51.296;-0.602;2022-12-20T09:41:37;0.75;;;0.60;;
50355;SDS011;36264;51.296;-0.602;2022-12-20T09:44:49;1.40;;;0.50;;
50355;SDS011;36264;51.296;-0.602;2022-12-20T09:47:20;1.60;;;0.50;;
50355;SDS011;36264;51.296;-0.602;2022-12-20T09:49:47;2.22;;;0.85;;
50355;SDS011;36264;51.296;-0.602;2022-12-20T09:54:55;0.90;;;0.60;;
50355;SDS011;36264;51.296;-0.602;2022-12-20T09:57:46;3.40;;;0.70;;
50355;SDS011;36264;51.296;-0.602;2022-12-20T10:00:39;3.05;;;0.60;;
50355;SDS011;36264;51.296;-0.602;2022-12-20T10:03:11;2.25;;;0.70;;
50355;SDS011;36264;51.296;-0.602;2022-12-20T10:05:55;1.00;;;0.70;;
50355;SDS011;36264;51.296;-0.602;2022-12-20T10:08:44;0.85;;;0.50;;
50355;SDS011;36264;51.296;-0.602;2022-12-20T10:11:36;0.85;;;0.60;;
50355;SDS011;36264;51.296;-0.602;2022-12-20T10:17:17;0.68;;;0.68;;
50355;SDS011;36264;51.296;-0.602;2022-12-20T10:25:16;2.83;;;0.73;;
50355;SDS011;36264;51.296;-0.602;2022-12-20T10:27:47;3.80;;;0.95;;
50355;SDS011;36264;51.296;-0.602;2022-12-20T10:30:15;3.53;;;1.00;;
50355;SDS011;36264;51.296;-0.602;2022-12-20T10:32:47;3.17;;;1.00;;
50355;SDS011;36264;51.296;-0.602;2022-12-20T10:38:07;3.50;;;0.90;;
50355;SDS011;36264;51.296;-0.602;2022-12-20T10:40:44;2.17;;;1.00;;
50355;SDS011;36264;51.296;-0.602;2022-12-20T10:43:24;6.70;;;1.33;;
50355;SDS011;36264;51.296;-0.602;2022-12-20T10:45:58;2.55;;;1.10;;
50355;SDS011;36264;51.296;-0.602;2022-12-20T10:48:30;4.95;;;1.30;;
50355;SDS011;36264;51.296;-0.602;2022-12-20T10:51:11;2.40;;;0.90;;
50355;SDS011;36264;51.296;-0.602;2022-12-20T10:53:52;4.78;;;1.20;;
50355;SDS011;36264;51.296;-0.602;2022-12-20T10:56:26;6.05;;;1.42;;
50355;SDS011;36264;51.296;-0.602;2022-12-20T11:01:46;9.20;;;1.70;;
50355;SDS011;36264;51.296;-0.602;2022-12-20T11:04:32;7.22;;;1.42;;
50355;SDS011;36264;51.296;-0.602;2022-12-20T11:07:00;4.88;;;1.40;;
50355;SDS011;36264;51.296;-0.602;2022-12-20T11:09:29;5.10;;;1.20;;
50355;SDS011;36264;51.296;-0.602;2022-12-20T11:11:57;5.38;;;1.50;;
50355;SDS011;36264;51.296;-0.602;2022-12-20T11:14:28;5.97;;;1.40;;
50355;SDS011;36264;51.296;-0.602;2022-12-20T11:16:55;10.10;;;2.38;;
50355;SDS011;36264;51.296;-0.602;2022-12-20T11:22:27;6.40;;;1.58;;
50355;SDS011;36264;51.296;-0.602;2022-12-20T11:27:40;11.05;;;2.10;;
50355;SDS011;36264;51.296;-0.602;2022-12-20T11:30:24;7.80;;;1.70;;
50355;SDS011;36264;51.296;-0.602;2022-12-20T11:33:05;5.93;;;1.67;;
50355;SDS011;36264;51.296;-0.602;2022-12-20T11:38:39;6.97;;;1.40;;
50355;SDS011;36264;51.296;-0.602;2022-12-20T11:55:01;7.30;;;1.58;;
50355;SDS011;36264;51.296;-0.602;2022-12-20T11:57:33;6.90;;;1.70;;
50355;SDS011;36264;51.296;-0.602;2022-12-20T12:00:10;7.60;;;1.80;;
50355;SDS011;36264;51.296;-0.602;2022-12-20T12:05:55;7.05;;;1.77;;
50355;SDS011;36264;51.296;-0.602;2022-12-20T12:08:04;6.85;;;1.60;;
50355;SDS011;36264;51.296;-0.602;2022-12-20T12:10:38;8.77;;;1.85;;
50355;SDS011;36264;51.296;-0.602;2022-12-20T12:15:58;7.68;;;1.85;;
50355;SDS011;36264;51.296;-0.602;2022-12-20T12:18:30;10.68;;;2.38;;
50355;SDS011;36264;51.296;-0.602;2022-12-20T12:21:00;12.52;;;2.58;;
50355;SDS011;36264;51.296;-0.602;2022-12-20T12:26:21;10.80;;;2.15;;
50355;SDS011;36264;51.296;-0.602;2022-12-20T12:28:52;13.45;;;2.10;;
50355;SDS011;36264;51.296;-0.602;2022-12-20T12:31:30;14.07;;;2.65;;
50355;SDS011;36264;51.296;-0.602;2022-12-20T12:34:44;9.23;;;2.35;;
50355;SDS011;36264;51.296;-0.602;2022-12-20T12:43:21;12.07;;;2.30;;
50355;SDS011;36264;51.296;-0.602;2022-12-20T12:45:59;12.73;;;2.72;;
50355;SDS011;36264;51.296;-0.602;2022-12-20T12:50:58;9.93;;;2.08;;
50355;SDS011;36264;51.296;-0.602;2022-12-20T13:09:22;7.95;;;1.95;;
50355;SDS011;36264;51.296;-0.602;2022-12-20T13:12:45;11.98;;;2.33;;
50355;SDS011;36264;51.296;-0.602;2022-12-20T13:20:24;7.55;;;2.50;;
50355;SDS011;36264;51.296;-0.602;2022-12-20T13:41:18;12.48;;;2.40;;
50355;SDS011;36264;51.296;-0.602;2022-12-20T13:43:50;10.95;;;2.25;;
50355;SDS011;36264;51.296;-0.602;2022-12-20T13:46:20;15.18;;;2.40;;
50355;SDS011;36264;51.296;-0.602;2022-12-20T13:49:09;14.52;;;2.70;;
50355;SDS011;36264;51.296;-0.602;2022-12-20T13:51:39;12.63;;;3.05;;
50355;SDS011;36264;51.296;-0.602;2022-12-20T13:54:14;16.13;;;3.10;;
50355;SDS011;36264;51.296;-0.602;2022-12-20T13:56:49;11.27;;;2.53;;
50355;SDS011;36264;51.296;-0.602;2022-12-20T13:59:21;12.23;;;2.13;;
50355;SDS011;36264;51.296;-0.602;2022-12-20T14:01:56;14.02;;;3.05;;
50355;SDS011;36264;51.296;-0.602;2022-12-20T14:04:26;15.60;;;2.65;;
50355;SDS011;36264;51.296;-0.602;2022-12-20T14:07:03;11.65;;;2.50;;
50355;SDS011;36264;51.296;-0.602;2022-12-20T14:09:33;10.80;;;2.40;;
50355;SDS011;36264;51.296;-0.602;2022-12-20T14:14:35;8.20;;;2.28;;
50355;SDS011;36264;51.296;-0.602;2022-12-20T14:22:39;11.05;;;2.10;;
50355;SDS011;36264;51.296;-0.602;2022-12-20T14:25:10;8.73;;;1.90;;
50355;SDS011;36264;51.296;-0.602;2022-12-20T14:27:40;7.50;;;2.05;;
50355;SDS011;36264;51.296;-0.602;2022-12-20T14:30:23;9.02;;;2.08;;
50355;SDS011;36264;51.296;-0.602;2022-12-20T14:32:51;12.13;;;2.25;;
50355;SDS011;36264;51.296;-0.602;2022-12-20T14:35:19;13.98;;;3.05;;
50355;SDS011;36264;51.296;-0.602;2022-12-20T14:37:53;9.43;;;2.08;;
50355;SDS011;36264;51.296;-0.602;2022-12-20T14:40:22;11.25;;;2.05;;
50355;SDS011;36264;51.296;-0.602;2022-12-20T14:42:48;11.02;;;2.25;;
50355;SDS011;36264;51.296;-0.602;2022-12-20T14:47:47;7.18;;;1.70;;
50355;SDS011;36264;51.296;-0.602;2022-12-20T14:50:18;9.13;;;1.90;;
50355;SDS011;36264;51.296;-0.602;2022-12-20T14:52:52;8.27;;;1.83;;
50355;SDS011;36264;51.296;-0.602;2022-12-20T14:55:23;7.97;;;2.00;;
50355;SDS011;36264;51.296;-0.602;2022-12-20T14:57:54;12.63;;;2.00;;
50355;SDS011;36264;51.296;-0.602;2022-12-20T15:00:22;7.00;;;1.70;;
50355;SDS011;36264;51.296;-0.602;2022-12-20T15:10:42;6.18;;;1.20;;
50355;SDS011;36264;51.296;-0.602;2022-12-20T15:13:14;6.45;;;1.60;;
50355;SDS011;36264;51.296;-0.602;2022-12-20T15:15:40;5.65;;;1.52;;
50355;SDS011;36264;51.296;-0.602;2022-12-20T15:18:13;4.63;;;1.45;;
50355;SDS011;36264;51.296;-0.602;2022-12-20T15:20:40;5.32;;;1.60;;
50355;SDS011;36264;51.296;-0.602;2022-12-20T15:23:17;6.75;;;1.45;;
50355;SDS011;36264;51.296;-0.602;2022-12-20T15:25:45;9.50;;;2.33;;
50355;SDS011;36264;51.296;-0.602;2022-12-20T15:28:21;6.28;;;1.85;;
50355;SDS011;36264;51.296;-0.602;2022-12-20T15:30:49;4.18;;;1.35;;
50355;SDS011;36264;51.296;-0.602;2022-12-20T15:33:20;6.05;;;1.70;;
50355;SDS011;36264;51.296;-0.602;2022-12-20T15:35:54;7.72;;;1.60;;
50355;SDS011;36264;51.296;-0.602;2022-12-20T15:38:23;3.90;;;1.40;;
50355;SDS011;36264;51.296;-0.602;2022-12-20T15:40:52;5.78;;;1.63;;
50355;SDS011;36264;51.296;-0.602;2022-12-20T15:43:19;6.53;;;1.40;;
50355;SDS011;36264;51.296;-0.602;2022-12-20T15:45:48;3.72;;;1.20;;
50355;SDS011;36264;51.296;-0.602;2022-12-20T15:48:18;3.45;;;1.15;;
50355;SDS011;36264;51.296;-0.602;2022-12-20T15:50:50;4.85;;;1.40;;
50355;SDS011;36264;51.296;-0.602;2022-12-20T15:53:19;6.55;;;1.40;;
50355;SDS011;36264;51.296;-0.602;2022-12-20T15:55:48;5.70;;;1.73;;
50355;SDS011;36264;51.296;-0.602;2022-12-20T15:58:15;5.53;;;1.40;;
50355;SDS011;36264;51.296;-0.602;2022-12-20T16:00:40;5.05;;;1.38;;
50355;SDS011;36264;51.296;-0.602;2022-12-20T16:03:11;5.55;;;1.20;;
50355;SDS011;36264;51.296;-0.602;2022-12-20T16:05:39;3.08;;;1.05;;
50355;SDS011;36264;51.296;-0.602;2022-12-20T16:08:04;4.40;;;1.25;;
50355;SDS011;36264;51.296;-0.602;2022-12-20T16:10:30;4.72;;;1.27;;
50355;SDS011;36264;51.296;-0.602;2022-12-20T16:12:55;3.47;;;1.40;;
50355;SDS011;36264;51.296;-0.602;2022-12-20T16:15:21;4.15;;;1.27;;
50355;SDS011;36264;51.296;-0.602;2022-12-20T16:17:47;5.00;;;1.35;;
50355;SDS011;36264;51.296;-0.602;2022-12-20T16:20:12;5.22;;;1.15;;
50355;SDS011;36264;51.296;-0.602;2022-12-20T16:22:38;6.43;;;1.50;;
50355;SDS011;36264;51.296;-0.602;2022-12-20T16:25:04;7.43;;;1.45;;
50355;SDS011;36264;51.296;-0.602;2022-12-20T16:27:30;6.85;;;1.75;;
50355;SDS011;36264;51.296;-0.602;2022-12-20T16:29:55;6.18;;;1.50;;
50355;SDS011;36264;51.296;-0.602;2022-12-20T16:32:20;3.40;;;1.20;;
50355;SDS011;36264;51.296;-0.602;2022-12-20T16:34:47;7.35;;;1.50;;
50355;SDS011;36264;51.296;-0.602;2022-12-20T16:37:13;5.80;;;1.42;;
50355;SDS011;36264;51.296;-0.602;2022-12-20T16:39:39;5.20;;;1.73;;
50355;SDS011;36264;51.296;-0.602;2022-12-20T16:42:10;5.15;;;1.65;;
50355;SDS011;36264;51.296;-0.602;2022-12-20T16:44:40;4.90;;;1.60;;
50355;SDS011;36264;51.296;-0.602;2022-12-20T16:47:08;6.32;;;1.88;;
50355;SDS011;36264;51.296;-0.602;2022-12-20T16:49:33;4.57;;;1.52;;
50355;SDS011;36264;51.296;-0.602;2022-12-20T16:51:59;8.90;;;2.15;;
50355;SDS011;36264;51.296;-0.602;2022-12-20T16:54:25;11.85;;;2.65;;
50355;SDS011;36264;51.296;-0.602;2022-12-20T16:56:51;5.82;;;1.70;;
50355;SDS011;36264;51.296;-0.602;2022-12-20T16:59:21;6.27;;;1.90;;